createdAt,value
2018-05-31T00:06:56.231Z,5.93
2018-05-31T00:12:02.343Z,6.37
2018-05-31T00:17:16.991Z,6.07
2018-05-31T00:22:21.355Z,6.90
2018-05-31T00:27:35.039Z,5.10
2018-05-31T00:32:44.563Z,5.30
2018-05-31T00:37:51.475Z,7.10
2018-05-31T00:43:00.469Z,5.57
2018-05-31T00:48:11.222Z,5.53
2018-05-31T00:53:27.147Z,5.63
2018-05-31T00:58:33.231Z,6.17
2018-05-31T01:09:42.060Z,6.03
2018-05-31T01:14:44.588Z,5.57
2018-05-31T01:19:47.124Z,4.97
2018-05-31T01:24:49.659Z,6.00
2018-05-31T01:29:52.204Z,6.93
2018-05-31T01:34:54.730Z,6.37
2018-05-31T01:39:57.258Z,6.67
2018-05-31T01:44:59.788Z,7.23
2018-05-31T01:50:02.324Z,6.80
2018-05-31T01:55:05.625Z,7.20
2018-05-31T02:00:08.168Z,7.10
2018-05-31T02:05:10.689Z,6.47
2018-05-31T02:10:13.219Z,6.23
2018-05-31T02:15:15.743Z,6.40
2018-05-31T02:20:19.029Z,7.50
2018-05-31T02:25:21.568Z,6.80
2018-05-31T02:30:24.096Z,6.00
2018-05-31T02:35:26.709Z,7.13
2018-05-31T02:40:29.255Z,7.67
2018-05-31T02:45:31.789Z,6.77
2018-05-31T02:50:34.328Z,7.40
2018-05-31T02:55:36.870Z,7.10
2018-05-31T03:00:39.406Z,7.27
2018-05-31T03:05:43.454Z,7.53
2018-05-31T03:10:48.165Z,7.10
2018-05-31T03:15:51.079Z,7.60
2018-05-31T03:20:54.828Z,6.87
2018-05-31T03:25:59.824Z,6.80
2018-05-31T03:31:02.705Z,7.13
2018-05-31T03:36:07.734Z,10.23
2018-05-31T03:41:13.002Z,7.00
2018-05-31T03:46:20.313Z,7.57
2018-05-31T03:51:23.853Z,7.13
2018-05-31T03:56:27.504Z,6.97
2018-05-31T04:01:32.358Z,9.40
2018-05-31T04:06:36.482Z,7.17
2018-05-31T04:11:40.287Z,7.53
2018-05-31T04:16:45.363Z,6.50
2018-05-31T04:21:48.531Z,7.30
2018-05-31T04:26:51.624Z,7.37
2018-05-31T04:31:55.277Z,8.00
2018-05-31T04:36:59.447Z,7.73
2018-05-31T04:42:02.327Z,7.43
2018-05-31T04:47:10.253Z,7.40
2018-05-31T04:52:14.189Z,7.70
2018-05-31T04:57:18.687Z,7.37
2018-05-31T05:02:21.983Z,8.60
2018-05-31T05:12:35.128Z,9.33
2018-05-31T05:17:38.412Z,9.53
2018-05-31T05:22:41.058Z,9.03
2018-05-31T05:27:45.520Z,10.17
2018-05-31T05:32:48.202Z,9.20
2018-05-31T05:37:52.787Z,8.90
2018-05-31T05:42:55.795Z,8.83
2018-05-31T05:47:58.801Z,8.40
2018-05-31T05:53:02.302Z,9.40
2018-05-31T05:58:05.648Z,7.83
2018-05-31T06:08:18.837Z,8.47
2018-05-31T06:13:23.579Z,7.90
2018-05-31T06:18:27.052Z,8.17
2018-05-31T06:23:30.647Z,8.80
2018-05-31T06:28:33.306Z,7.77
2018-05-31T06:33:36.001Z,7.60
2018-05-31T06:38:41.188Z,8.13
2018-05-31T06:43:43.943Z,7.63
2018-05-31T06:48:47.709Z,7.00
2018-05-31T06:53:50.577Z,8.17
2018-05-31T06:58:55.360Z,7.40
2018-05-31T07:03:58.554Z,8.20
2018-05-31T07:09:02.273Z,7.43
2018-05-31T07:14:05.733Z,7.03
2018-05-31T07:19:08.768Z,7.30
2018-05-31T07:24:11.701Z,7.90
2018-05-31T07:29:15.503Z,6.97
2018-05-31T07:34:20.334Z,7.00
2018-05-31T07:39:28.320Z,7.97
2018-05-31T07:44:31.291Z,6.90
2018-05-31T07:49:34.141Z,6.60
2018-05-31T07:54:37.131Z,7.30
2018-05-31T07:59:40.264Z,7.63
2018-05-31T08:04:43.905Z,5.57
2018-05-31T08:09:46.988Z,5.40
2018-05-31T08:14:50.084Z,6.37
2018-05-31T08:19:53.016Z,6.80
2018-05-31T08:24:55.984Z,7.47
2018-05-31T08:29:58.686Z,6.97
2018-05-31T08:35:01.667Z,6.07
2018-05-31T08:40:05.177Z,6.53
2018-05-31T08:45:08.138Z,6.60
2018-05-31T08:50:10.744Z,6.20
2018-05-31T08:55:13.432Z,5.10
2018-05-31T09:00:16.064Z,6.00
2018-05-31T09:05:18.805Z,6.87
2018-05-31T09:10:21.406Z,5.43
2018-05-31T09:15:24.003Z,6.43
2018-05-31T09:20:26.656Z,5.73
2018-05-31T09:25:29.293Z,6.90
2018-05-31T09:30:32.382Z,7.23
2018-05-31T09:35:34.997Z,7.40
2018-05-31T09:40:50.774Z,6.40
2018-05-31T09:45:54.216Z,6.00
2018-05-31T09:51:10.776Z,6.70
2018-05-31T09:56:14.921Z,5.57
2018-05-31T10:01:19.488Z,5.50
2018-05-31T10:06:23.677Z,6.90
2018-05-31T10:11:32.534Z,5.83
2018-05-31T10:16:36.071Z,5.73
2018-05-31T10:21:40.307Z,7.37
2018-05-31T10:26:44.185Z,5.60
2018-05-31T10:31:49.237Z,6.10
2018-05-31T10:37:06.266Z,5.50
2018-05-31T10:42:09.725Z,5.50
2018-05-31T10:47:18.769Z,5.40
2018-05-31T10:52:22.233Z,6.03
2018-05-31T10:57:26.593Z,6.77
2018-05-31T11:02:30.446Z,4.70
2018-05-31T11:07:34.446Z,5.03
2018-05-31T11:12:51.850Z,4.50
2018-05-31T11:17:55.436Z,4.93
2018-05-31T11:23:03.421Z,5.03
2018-05-31T11:28:07.761Z,5.40
2018-05-31T11:33:37.992Z,5.30
2018-05-31T11:38:41.581Z,5.10
2018-05-31T11:43:58.397Z,4.57
2018-05-31T11:49:02.465Z,5.30
2018-05-31T11:54:18.970Z,4.60
2018-05-31T11:59:23.341Z,4.97
2018-05-31T12:04:41.065Z,4.80
2018-05-31T12:09:44.936Z,4.80
2018-05-31T12:14:53.222Z,5.03
2018-05-31T12:19:57.273Z,5.03
2018-05-31T12:25:00.832Z,5.90
2018-05-31T12:30:16.826Z,4.93
2018-05-31T12:35:46.037Z,4.97
2018-05-31T12:40:49.875Z,5.60
2018-05-31T12:45:58.855Z,4.70
2018-05-31T12:51:02.713Z,5.60
2018-05-31T12:56:09.467Z,5.40
2018-05-31T13:01:13.370Z,5.60
2018-05-31T13:06:29.813Z,5.43
2018-05-31T13:11:34.700Z,5.03
2018-05-31T13:16:38.870Z,5.23
2018-05-31T13:21:54.784Z,5.80
2018-05-31T13:26:58.456Z,5.50
2018-05-31T13:32:06.418Z,5.30
2018-05-31T13:37:10.160Z,4.80
2018-05-31T13:42:14.317Z,5.10
2018-05-31T13:47:18.222Z,5.73
2018-05-31T13:52:21.868Z,5.70
2018-05-31T13:57:30.115Z,5.53
2018-05-31T14:02:34.502Z,5.70
2018-05-31T14:07:38.137Z,5.67
2018-05-31T14:12:42.093Z,6.00
2018-05-31T14:17:46.051Z,5.40
2018-05-31T14:23:03.377Z,5.17
2018-05-31T14:28:07.533Z,5.00
2018-05-31T14:33:15.448Z,4.93
2018-05-31T14:38:18.913Z,4.67
2018-05-31T14:43:22.788Z,4.97
2018-05-31T14:48:27.022Z,5.60
2018-05-31T14:53:30.876Z,4.60
2018-05-31T14:58:39.019Z,5.93
2018-05-31T15:03:42.689Z,6.27
2018-05-31T15:08:46.552Z,5.90
2018-05-31T15:13:50.325Z,5.53
2018-05-31T15:18:54.473Z,6.20
2018-05-31T15:24:03.145Z,4.20
2018-05-31T15:29:07.688Z,5.03
2018-05-31T15:34:13.028Z,4.90
2018-05-31T15:39:17.091Z,5.17
2018-05-31T15:44:21.862Z,3.77
2018-05-31T15:49:37.109Z,4.50
2018-05-31T15:54:41.072Z,3.73
2018-05-31T15:59:56.659Z,3.90
2018-05-31T16:05:01.420Z,3.70
2018-05-31T16:15:11.070Z,4.73
2018-05-31T16:20:15.014Z,3.70
2018-05-31T16:25:18.742Z,4.00
2018-05-31T16:30:34.440Z,3.90
2018-05-31T16:35:39.112Z,3.80
2018-05-31T16:40:55.343Z,4.30
2018-05-31T16:45:59.181Z,4.30
2018-05-31T16:51:06.606Z,4.77
2018-05-31T16:56:10.248Z,3.80
2018-05-31T17:01:14.098Z,5.13
2018-05-31T17:06:18.049Z,28.90
2018-05-31T17:11:22.471Z,32.43
2018-05-31T17:16:27.027Z,11.23
2018-05-31T17:21:31.301Z,5.00
2018-05-31T17:26:35.399Z,4.00
2018-05-31T17:31:38.833Z,4.63
2018-05-31T17:36:54.741Z,3.93
2018-05-31T17:41:58.563Z,4.97
2018-05-31T17:52:07.605Z,4.10
2018-05-31T17:57:11.268Z,5.00
2018-05-31T18:02:14.155Z,4.20
2018-05-31T18:07:29.876Z,4.40
2018-05-31T18:12:34.644Z,4.30
2018-05-31T18:17:52.520Z,8.50
2018-05-31T18:22:56.789Z,4.67
2018-05-31T18:28:13.874Z,4.47
2018-05-31T18:33:20.366Z,5.00
2018-05-31T18:38:36.442Z,4.80
2018-05-31T18:43:41.499Z,4.27
2018-05-31T18:48:57.496Z,5.50
2018-05-31T18:54:01.705Z,4.40
2018-05-31T18:59:09.515Z,4.77
2018-05-31T19:04:13.173Z,4.83
2018-05-31T19:09:22.866Z,5.17
2018-05-31T19:14:26.721Z,4.70
2018-05-31T19:19:35.633Z,5.10
2018-05-31T19:24:44.043Z,4.00
2018-05-31T19:29:46.936Z,4.53
2018-05-31T19:34:49.704Z,4.30
2018-05-31T19:39:52.403Z,5.20
2018-05-31T19:44:55.099Z,4.03
2018-05-31T19:49:57.684Z,4.47
2018-05-31T19:55:00.332Z,4.40
2018-05-31T20:00:09.547Z,4.30
2018-05-31T20:05:16.368Z,4.43
2018-05-31T20:10:19.854Z,4.57
2018-05-31T20:15:22.605Z,4.90
2018-05-31T20:20:25.385Z,3.80
2018-05-31T20:25:28.363Z,4.03
2018-05-31T20:30:31.157Z,4.50
2018-05-31T20:35:34.662Z,4.63
2018-05-31T20:40:37.432Z,4.20
2018-05-31T20:45:40.184Z,4.03
2018-05-31T20:50:42.870Z,4.40
2018-05-31T20:55:45.725Z,4.50
2018-05-31T21:00:48.623Z,4.10
2018-05-31T21:05:51.533Z,3.80
2018-05-31T21:10:54.698Z,3.90
2018-05-31T21:15:57.601Z,3.63
2018-05-31T21:21:01.398Z,4.00
2018-05-31T21:26:04.363Z,4.00
2018-05-31T21:31:07.040Z,4.27
2018-05-31T21:36:09.792Z,4.30
2018-05-31T21:41:12.575Z,4.00
2018-05-31T21:46:15.461Z,3.60
2018-05-31T21:51:18.058Z,4.33
2018-05-31T21:56:21.029Z,4.47
2018-05-31T22:01:23.915Z,4.23
2018-05-31T22:06:26.675Z,3.43
2018-05-31T22:11:29.409Z,3.50
2018-05-31T22:16:32.693Z,3.47
2018-05-31T22:21:35.362Z,3.70
2018-05-31T22:26:38.552Z,4.30
2018-05-31T22:31:41.322Z,3.43
2018-05-31T22:36:44.172Z,4.00
2018-05-31T22:41:46.859Z,4.20
2018-05-31T22:46:49.985Z,3.50
2018-05-31T22:51:52.665Z,3.30
2018-05-31T22:56:55.755Z,3.30
2018-05-31T23:01:58.818Z,3.80
2018-05-31T23:07:01.503Z,3.10
2018-05-31T23:12:05.300Z,4.10
2018-05-31T23:17:08.051Z,3.40
2018-05-31T23:22:12.013Z,4.23
2018-05-31T23:27:14.572Z,4.00
2018-05-31T23:32:17.473Z,3.37
2018-05-31T23:37:21.667Z,4.27
2018-05-31T23:42:25.025Z,3.97
2018-05-31T23:47:27.750Z,4.33
2018-05-31T23:52:30.763Z,3.30
2018-05-31T23:57:33.757Z,4.30
